Time;durP1;ratioP1;P1;durP2;ratioP2;P2;SDS_P1;SDS_P2;PMS_P1;PMS_P2;Temp;Humidity;BMP_temperature;BMP_pressure;BME280_temperature;BME280_humidity;BME280_pressure;Samples;Min_cycle;Max_cycle;Signal;HPM_P1;HPM_P2
2021/03/20 00:02:37;;;;;;;4.85;4.15;;;-3.20;99.90;;;;;;4979310;28;20431;-96
2021/03/20 00:05:14;;;;;;;5.47;4.10;;;-3.20;99.90;;;;;;4994304;28;20438;-96
2021/03/20 00:07:46;;;;;;;4.57;3.95;;;-3.30;99.90;;;;;;4977393;28;20520;-96
2021/03/20 00:10:20;;;;;;;4.95;4.15;;;-3.40;99.90;;;;;;4976988;28;20416;-96
2021/03/20 00:12:53;;;;;;;4.93;4.10;;;-3.30;99.90;;;;;;4994190;28;20420;-96
2021/03/20 00:15:25;;;;;;;4.75;3.85;;;-3.40;99.90;;;;;;4976306;28;20439;-96
2021/03/20 00:17:56;;;;;;;5.47;4.18;;;-3.40;99.90;;;;;;4993675;28;20424;-96
2021/03/20 00:20:32;;;;;;;6.00;4.23;;;-3.40;99.90;;;;;;4974454;28;20423;-96
2021/03/20 00:23:01;;;;;;;4.28;3.88;;;-3.30;99.90;;;;;;4973557;28;20773;-96
2021/03/20 00:25:28;;;;;;;6.37;4.40;;;-3.30;99.90;;;;;;4974263;28;20451;-95
2021/03/20 00:27:56;;;;;;;4.93;4.30;;;-3.20;99.90;;;;;;4972586;28;20436;-95
2021/03/20 00:30:26;;;;;;;5.57;4.70;;;-3.30;99.90;;;;;;4977110;28;20421;-96
2021/03/20 00:33:07;;;;;;;5.47;4.80;;;-3.30;99.90;;;;;;4977320;28;20426;-96
2021/03/20 00:35:34;;;;;;;4.97;4.47;;;-3.30;99.90;;;;;;4973255;28;20519;-93
2021/03/20 00:38:04;;;;;;;5.80;4.72;;;-3.20;99.90;;;;;;4975026;28;20424;-96
2021/03/20 00:40:32;;;;;;;5.40;4.50;;;-3.30;99.90;;;;;;4974045;28;20512;-95
2021/03/20 00:42:59;;;;;;;5.63;4.63;;;-3.20;99.90;;;;;;5006935;28;20420;-95
2021/03/20 00:45:27;;;;;;;5.60;4.22;;;-3.40;99.90;;;;;;4969230;28;20509;-95
2021/03/20 00:48:02;;;;;;;4.60;4.00;;;-3.30;99.90;;;;;;4969264;28;20498;-94
2021/03/20 00:50:28;;;;;;;7.07;5.13;;;-3.30;99.90;;;;;;4965500;28;20451;-95
2021/03/20 00:52:55;;;;;;;14.93;8.80;;;-3.40;99.90;;;;;;4966815;28;20425;-96
2021/03/20 00:55:22;;;;;;;5.97;4.93;;;-3.40;99.90;;;;;;4966719;28;20504;-94
2021/03/20 00:57:48;;;;;;;4.82;4.00;;;-3.50;99.90;;;;;;4966634;28;20427;-95
2021/03/20 01:00:19;;;;;;;5.60;3.40;;;-3.60;99.90;;;;;;4968486;28;20412;-96
2021/03/20 01:11:30;;;;;;;4.78;3.50;;;-3.60;99.90;;;;;;5206699;22;20463;-95
2021/03/20 01:13:59;;;;;;;3.88;3.10;;;-3.60;99.90;;;;;;5011107;28;20547;-95
2021/03/20 01:16:35;;;;;;;4.40;3.00;;;-3.70;99.90;;;;;;5012344;28;20431;-96
2021/03/20 01:19:03;;;;;;;4.45;2.92;;;-3.70;99.90;;;;;;4993542;28;20413;-96
2021/03/20 01:21:32;;;;;;;5.75;3.55;;;-3.70;99.90;;;;;;4973045;28;20504;-95
2021/03/20 01:24:15;;;;;;;4.72;3.90;;;-3.70;99.90;;;;;;5024444;28;20444;-95
2021/03/20 01:26:41;;;;;;;4.33;3.40;;;-3.70;99.90;;;;;;5007989;28;20491;-96
2021/03/20 01:29:10;;;;;;;5.00;3.70;;;-3.70;99.90;;;;;;4992143;28;20955;-96
2021/03/20 01:31:38;;;;;;;5.00;3.78;;;-3.70;99.90;;;;;;5007802;28;20456;-96
2021/03/20 01:34:07;;;;;;;4.68;3.60;;;-3.70;99.90;;;;;;5009665;28;20416;-96
2021/03/20 01:36:35;;;;;;;4.97;3.85;;;-3.60;99.90;;;;;;4993193;28;20503;-95
2021/03/20 01:39:07;;;;;;;4.78;3.72;;;-3.70;99.90;;;;;;5010151;28;20421;-96
2021/03/20 01:41:45;;;;;;;4.97;3.85;;;-3.80;99.90;;;;;;4981816;28;20496;-96
2021/03/20 01:44:26;;;;;;;5.20;4.10;;;-3.70;99.90;;;;;;5009471;28;20441;-96
2021/03/20 01:46:55;;;;;;;5.93;4.18;;;-3.60;99.90;;;;;;5008362;28;20449;-96
2021/03/20 01:49:46;;;;;;;6.95;4.88;;;-3.60;99.90;;;;;;5010455;28;20455;-95
2021/03/20 01:52:32;;;;;;;5.65;4.35;;;-3.60;99.90;;;;;;5022877;28;20484;-96
2021/03/20 01:55:13;;;;;;;8.27;6.25;;;-3.50;99.90;;;;;;4992601;28;20453;-95
2021/03/20 01:57:51;;;;;;;7.60;5.50;;;-3.50;99.90;;;;;;5010140;28;20435;-96
2021/03/20 02:00:32;;;;;;;7.60;5.75;;;-3.60;99.90;;;;;;5011726;28;20440;-95
2021/03/20 02:03:16;;;;;;;7.23;5.77;;;-3.70;99.90;;;;;;5010186;28;20409;-95
2021/03/20 02:05:43;;;;;;;6.13;5.30;;;-3.80;99.90;;;;;;4999994;28;20483;-95
2021/03/20 02:08:13;;;;;;;8.43;6.13;;;-3.80;99.90;;;;;;4999545;28;20421;-94
2021/03/20 02:10:42;;;;;;;6.88;5.88;;;-4.00;99.90;;;;;;4999219;28;20736;-96
2021/03/20 02:13:15;;;;;;;8.30;6.10;;;-4.10;99.90;;;;;;4999446;28;20421;-96
2021/03/20 02:15:48;;;;;;;7.55;5.60;;;-4.20;99.90;;;;;;4998900;28;20511;-96
2021/03/20 02:18:20;;;;;;;7.53;6.05;;;-4.20;99.90;;;;;;5003576;28;20483;-95
2021/03/20 02:20:59;;;;;;;9.03;5.90;;;-4.40;99.90;;;;;;5001985;28;20495;-95
2021/03/20 02:23:48;;;;;;;8.10;6.57;;;-4.60;99.90;;;;;;5020447;28;20443;-96
2021/03/20 02:26:39;;;;;;;11.43;7.78;;;-4.80;99.90;;;;;;5004109;28;20821;-96
2021/03/20 02:29:31;;;;;;;11.30;6.60;;;-4.90;99.90;;;;;;5003935;28;20421;-95
2021/03/20 02:32:26;;;;;;;9.68;7.43;;;-5.00;99.90;;;;;;5005122;28;20428;-95
2021/03/20 02:35:15;;;;;;;8.20;5.93;;;-5.10;99.90;;;;;;5005385;28;20440;-96
2021/03/20 02:37:58;;;;;;;11.18;8.73;;;-5.10;99.90;;;;;;5023288;28;20448;-96
2021/03/20 02:40:58;;;;;;;9.27;7.30;;;-5.10;99.90;;;;;;5006160;28;20436;-94
2021/03/20 02:43:51;;;;;;;11.25;8.23;;;-5.10;99.90;;;;;;4996111;28;20413;-95
2021/03/20 02:46:30;;;;;;;10.65;8.30;;;-5.20;99.90;;;;;;4987745;28;20484;-95
2021/03/20 02:49:05;;;;;;;11.47;8.87;;;-5.30;99.90;;;;;;5006162;28;20420;-96
2021/03/20 02:51:42;;;;;;;10.40;8.60;;;-5.30;99.90;;;;;;5002511;28;20436;-95
2021/03/20 02:54:32;;;;;;;11.23;9.02;;;-5.20;99.90;;;;;;5003331;28;20427;-95
2021/03/20 02:57:11;;;;;;;12.93;9.90;;;-5.20;99.90;;;;;;5002920;28;20424;-96
2021/03/20 02:59:42;;;;;;;12.52;10.15;;;-5.20;99.90;;;;;;5008546;28;20428;-95
2021/03/20 03:02:14;;;;;;;13.07;10.27;;;-5.10;99.90;;;;;;4992404;28;20455;-96
2021/03/20 03:05:21;;;;;;;14.10;9.90;;;-5.10;99.90;;;;;;5004365;28;20436;-94
2021/03/20 03:08:17;;;;;;;12.65;9.80;;;-5.10;99.90;;;;;;5010563;28;20519;-95
2021/03/20 03:11:30;;;;;;;10.95;8.40;;;-5.20;99.90;;;;;;4998585;28;20404;-95
2021/03/20 03:14:32;;;;;;;13.02;8.85;;;-5.10;99.90;;;;;;5011170;28;20417;-94
2021/03/20 03:17:29;;;;;;;13.70;9.07;;;-5.10;99.90;;;;;;4997075;28;20417;-94
2021/03/20 03:20:46;;;;;;;11.93;9.23;;;-5.00;99.90;;;;;;5006552;28;20498;-95
2021/03/20 03:23:19;;;;;;;11.15;8.63;;;-5.00;99.90;;;;;;5006207;28;20494;-94
2021/03/20 03:25:50;;;;;;;12.60;9.23;;;-4.90;99.90;;;;;;5001929;28;20460;-95
2021/03/20 03:28:21;;;;;;;13.32;10.13;;;-4.90;99.90;;;;;;5003108;28;20424;-96
2021/03/20 03:30:48;;;;;;;13.05;10.00;;;-4.70;99.90;;;;;;5002918;28;20425;-94
2021/03/20 03:33:24;;;;;;;13.48;10.10;;;-4.50;99.90;;;;;;5002046;28;20421;-95
2021/03/20 03:36:05;;;;;;;13.10;10.10;;;-4.50;99.90;;;;;;5003314;28;20927;-95
2021/03/20 03:39:01;;;;;;;13.68;10.10;;;-4.30;99.90;;;;;;5000926;28;20425;-96
2021/03/20 03:41:33;;;;;;;13.48;9.48;;;-4.20;99.90;;;;;;5000588;28;20435;-94
2021/03/20 03:44:00;;;;;;;11.52;8.85;;;-4.50;99.90;;;;;;5002102;28;20424;-95
2021/03/20 03:46:33;;;;;;;13.63;9.17;;;-4.60;99.90;;;;;;5001218;28;20431;-94
2021/03/20 03:49:03;;;;;;;11.87;9.40;;;-4.60;99.90;;;;;;5002426;28;20942;-95
2021/03/20 03:51:30;;;;;;;12.57;9.20;;;-4.70;99.90;;;;;;5001208;28;20428;-95
2021/03/20 03:53:58;;;;;;;13.57;9.23;;;-4.80;99.90;;;;;;5005701;28;20451;-95
2021/03/20 03:56:44;;;;;;;12.25;8.95;;;-4.90;99.90;;;;;;5004839;28;20431;-95
2021/03/20 03:59:15;;;;;;;13.18;9.98;;;-5.00;99.90;;;;;;5001901;28;20515;-95
2021/03/20 04:02:06;;;;;;;17.50;11.07;;;-5.20;99.90;;;;;;5002355;28;20452;-95
2021/03/20 04:04:51;;;;;;;17.30;10.43;;;-5.30;99.90;;;;;;5001702;28;20432;-95
2021/03/20 04:07:51;;;;;;;15.25;10.63;;;-5.20;99.90;;;;;;5000632;28;20512;-94
2021/03/20 04:10:25;;;;;;;16.20;10.85;;;-5.30;99.90;;;;;;5000903;28;20861;-94
2021/03/20 04:13:07;;;;;;;15.63;10.90;;;-5.20;99.90;;;;;;5000983;28;20455;-94
2021/03/20 04:15:55;;;;;;;15.63;10.57;;;-5.10;99.90;;;;;;5000654;28;20769;-95
2021/03/20 04:18:56;;;;;;;16.10;10.13;;;-5.20;99.90;;;;;;5000553;28;20420;-95
2021/03/20 04:21:49;;;;;;;17.17;11.07;;;-5.10;99.90;;;;;;5000830;28;21009;-94
2021/03/20 04:24:37;;;;;;;17.70;10.85;;;-5.10;99.90;;;;;;5000033;28;20429;-94
2021/03/20 04:27:14;;;;;;;18.98;10.80;;;-5.20;99.90;;;;;;5000387;28;20508;-95
2021/03/20 04:29:50;;;;;;;16.88;10.90;;;-5.10;99.90;;;;;;4999993;28;20440;-95
2021/03/20 04:32:32;;;;;;;16.92;10.43;;;-5.10;99.90;;;;;;4999333;28;20593;-94
2021/03/20 04:35:17;;;;;;;18.25;10.68;;;-5.20;99.90;;;;;;5003937;28;20967;-94
2021/03/20 04:37:49;;;;;;;16.65;9.60;;;-5.20;99.90;;;;;;4997904;28;20929;-94
2021/03/20 04:40:39;;;;;;;16.40;9.60;;;-5.10;99.90;;;;;;4999825;28;20437;-95
2021/03/20 04:43:09;;;;;;;15.30;9.05;;;-5.20;99.90;;;;;;5001529;28;20425;-94
2021/03/20 04:45:40;;;;;;;16.27;9.82;;;-5.20;99.90;;;;;;5001020;28;20484;-95
2021/03/20 04:48:29;;;;;;;16.50;9.43;;;-5.20;99.90;;;;;;5001526;28;20428;-94
2021/03/20 04:51:06;;;;;;;16.13;10.03;;;-5.20;99.90;;;;;;5001843;28;20443;-94
2021/03/20 04:53:34;;;;;;;16.42;10.02;;;-5.30;99.90;;;;;;5004586;28;20427;-94
2021/03/20 04:56:04;;;;;;;18.08;9.23;;;-5.20;99.90;;;;;;5000182;28;20421;-93
2021/03/20 04:58:40;;;;;;;15.80;8.95;;;-5.30;99.90;;;;;;5001002;28;20982;-94
2021/03/20 05:01:23;;;;;;;16.10;9.07;;;-5.20;99.90;;;;;;5000886;28;20441;-95
2021/03/20 05:03:58;;;;;;;12.82;8.65;;;-5.30;99.90;;;;;;5003295;28;20432;-95
2021/03/20 05:06:27;;;;;;;15.05;8.68;;;-5.20;99.90;;;;;;4998747;28;20430;-94
2021/03/20 05:08:59;;;;;;;15.50;8.73;;;-5.20;99.90;;;;;;4998931;28;20459;-94
2021/03/20 05:11:53;;;;;;;13.43;8.02;;;-5.30;99.90;;;;;;5001560;28;20773;-95
2021/03/20 05:14:36;;;;;;;13.52;8.38;;;-5.30;99.90;;;;;;4964166;28;20425;-95
2021/03/20 05:17:21;;;;;;;14.35;8.30;;;-5.30;99.90;;;;;;5000080;28;20730;-95
2021/03/20 05:19:48;;;;;;;16.15;9.13;;;-5.20;99.90;;;;;;4999848;28;20460;-94
2021/03/20 05:22:28;;;;;;;15.30;8.18;;;-5.20;99.90;;;;;;4999247;28;20455;-95
2021/03/20 05:24:55;;;;;;;17.15;8.88;;;-5.20;99.90;;;;;;4999335;28;20459;-95
2021/03/20 05:27:26;;;;;;;14.90;8.82;;;-5.30;99.90;;;;;;4998419;28;20832;-93
2021/03/20 05:29:54;;;;;;;16.15;10.13;;;-5.20;99.90;;;;;;4998903;28;20503;-94
2021/03/20 05:32:31;;;;;;;14.80;9.20;;;-5.30;99.90;;;;;;4998768;28;20837;-93
2021/03/20 05:35:00;;;;;;;17.20;9.30;;;-5.20;99.90;;;;;;4999790;28;20424;-94
2021/03/20 05:37:31;;;;;;;15.88;10.15;;;-5.30;99.90;;;;;;5000020;28;20435;-95
2021/03/20 05:39:59;;;;;;;16.08;9.77;;;-5.20;99.90;;;;;;4999453;28;20424;-96
2021/03/20 05:42:51;;;;;;;15.52;10.10;;;-5.10;99.90;;;;;;5000527;28;20847;-95
2021/03/20 05:45:38;;;;;;;18.45;10.80;;;-5.10;99.90;;;;;;4998628;28;20440;-93
2021/03/20 05:48:27;;;;;;;16.92;10.45;;;-5.10;99.90;;;;;;5002971;28;20507;-96
2021/03/20 05:51:25;;;;;;;15.30;9.70;;;-5.00;99.90;;;;;;5004166;28;20452;-95
2021/03/20 05:53:51;;;;;;;14.40;9.87;;;-5.00;99.90;;;;;;5005428;28;20436;-94
2021/03/20 05:59:46;;;;;;;13.30;8.95;;;-5.00;99.90;;;;;;4971282;29;20434;-96
2021/03/20 06:02:41;;;;;;;16.17;9.32;;;-5.00;99.90;;;;;;4968288;29;20457;-96
2021/03/20 06:05:34;;;;;;;13.95;7.20;;;-5.10;99.90;;;;;;4965901;29;20501;-96
2021/03/20 06:08:43;;;;;;;12.10;7.70;;;-5.00;99.90;;;;;;4954563;29;20445;-96
2021/03/20 06:12:08;;;;;;;13.97;8.73;;;-5.10;99.90;;;;;;4977443;28;20438;-95
2021/03/20 06:14:47;;;;;;;14.32;8.75;;;-5.10;99.90;;;;;;4960380;29;20505;-94
2021/03/20 06:17:32;;;;;;;14.43;7.82;;;-5.20;99.90;;;;;;4960342;29;20434;-96
2021/03/20 06:20:34;;;;;;;14.40;8.15;;;-5.20;99.90;;;;;;4961017;28;20468;-94
2021/03/20 06:23:12;;;;;;;14.20;8.80;;;-5.20;99.90;;;;;;4941792;29;20462;-95
2021/03/20 06:26:13;;;;;;;13.15;7.88;;;-5.20;99.90;;;;;;4963172;29;20438;-95
2021/03/20 06:28:56;;;;;;;14.55;7.97;;;-5.20;99.90;;;;;;4965587;29;20453;-96
2021/03/20 06:31:40;;;;;;;13.55;7.70;;;-4.90;99.90;;;;;;4963942;28;20430;-96
2021/03/20 06:34:33;;;;;;;13.85;7.70;;;-4.70;99.90;;;;;;4962104;28;20739;-96
2021/03/20 06:37:14;;;;;;;14.43;7.60;;;-4.70;99.90;;;;;;4959647;29;20496;-95
2021/03/20 06:40:34;;;;;;;15.00;8.48;;;-4.50;99.90;;;;;;4965262;29;20440;-95
2021/03/20 06:44:27;;;;;;;14.65;7.03;;;-4.30;99.90;;;;;;4955517;29;20439;-96
2021/03/20 06:52:04;;;;;;;13.75;7.93;;;-4.20;99.80;;;;;;4963998;29;20438;-95
2021/03/20 06:55:35;;;;;;;12.65;7.50;;;-4.40;99.90;;;;;;4951519;29;20421;-95
2021/03/20 07:04:41;;;;;;;10.82;6.00;;;-1.70;91.20;;;;;;4980391;28;20433;-95
2021/03/20 07:07:30;;;;;;;10.63;5.80;;;-1.20;88.30;;;;;;4962210;28;20436;-95
2021/03/20 07:10:04;;;;;;;8.77;5.57;;;-1.00;82.80;;;;;;4962644;28;20467;-96
2021/03/20 07:12:32;;;;;;;10.52;5.97;;;-0.70;82.10;;;;;;4964943;28;20843;-95
2021/03/20 07:15:24;;;;;;;10.77;6.00;;;-0.90;81.90;;;;;;4966999;28;20475;-96
2021/03/20 07:18:50;;;;;;;9.63;5.60;;;-1.20;84.00;;;;;;4986715;28;20501;-95
2021/03/20 07:22:21;;;;;;;12.70;6.57;;;-1.30;86.90;;;;;;4969042;28;20435;-95
2021/03/20 07:25:53;;;;;;;12.50;6.30;;;-1.70;88.60;;;;;;4966519;28;20467;-96
2021/03/20 07:28:34;;;;;;;11.38;6.50;;;-2.00;89.80;;;;;;4942654;28;20428;-96
2021/03/20 07:34:46;;;;;;;11.30;6.10;;;-2.20;91.90;;;;;;5633069;23;20879;-95
2021/03/20 07:38:29;;;;;;;10.13;5.82;;;-1.90;90.80;;;;;;4948030;29;20509;-96
2021/03/20 07:53:51;;;;;;;10.67;5.70;;;-1.00;77.50;;;;;;5424613;23;20466;-95
2021/03/20 07:56:30;;;;;;;9.80;5.90;;;-1.50;82.30;;;;;;5020348;28;20981;-95
2021/03/20 07:59:45;;;;;;;10.93;6.40;;;-1.70;83.70;;;;;;5022076;28;20424;-95
2021/03/20 08:08:33;;;;;;;8.82;4.97;;;0.00;84.40;;;;;;5451813;22;20443;-92
2021/03/20 08:59:11;;;;;;;9.23;4.32;;;0.50;73.70;;;;;;5046465;28;20422;-95
2021/03/20 09:02:11;;;;;;;;;;;;;;;;;;;;;
2021/03/20 09:05:44;;;;;;;8.83;4.70;;;0.70;70.70;;;;;;5046991;28;20505;-96
2021/03/20 09:09:23;;;;;;;9.27;5.25;;;1.20;73.10;;;;;;5079663;22;20429;-95
2021/03/20 09:12:54;;;;;;;8.90;4.60;;;1.40;71.70;;;;;;5011114;28;20378;-96
2021/03/20 09:16:20;;;;;;;9.30;4.80;;;1.40;68.60;;;;;;5010349;28;20506;-96
2021/03/20 09:52:06;;;;;;;9.60;5.45;;;0.00;80.20;;;;;;5007182;28;20469;-96
2021/03/20 10:07:12;;;;;;;11.70;6.68;;;0.70;74.80;;;;;;1444922;22;20631;-93
2021/03/20 10:10:31;;;;;;;11.65;7.00;;;0.60;68.80;;;;;;4982985;28;20430;-92
2021/03/20 10:13:50;;;;;;;11.88;6.70;;;0.80;71.50;;;;;;4988562;28;20420;-93
2021/03/20 10:19:14;;;;;;;11.60;7.10;;;1.00;79.20;;;;;;5067605;22;20414;-94
2021/03/20 10:22:47;;;;;;;10.53;6.10;;;0.90;75.50;;;;;;5051492;28;20411;-94
2021/03/20 10:25:33;;;;;;;9.80;5.75;;;0.90;73.40;;;;;;5010939;28;20515;-94
2021/03/20 10:28:18;;;;;;;10.93;6.70;;;0.70;68.80;;;;;;4992437;28;20417;-95
2021/03/20 13:52:17;;;;;;;7.72;5.43;;;-1.00;79.80;;;;;;5825674;22;20430;-95
2021/03/20 13:54:47;;;;;;;9.10;5.43;;;-1.00;81.20;;;;;;5029929;28;20471;-96
2021/03/20 13:57:14;;;;;;;7.88;4.88;;;-0.80;81.90;;;;;;5016119;28;20430;-94
2021/03/20 14:06:15;;;;;;;7.75;4.65;;;2.00;73.10;;;;;;5460719;23;20480;-96
2021/03/20 14:09:34;;;;;;;8.65;4.40;;;2.60;67.00;;;;;;5050753;28;20411;-96
2021/03/20 14:12:28;;;;;;;7.50;4.50;;;2.40;66.50;;;;;;5051161;28;20446;-96
2021/03/20 14:48:14;;;;;;;11.55;6.43;;;0.10;69.00;;;;;;5812860;23;20480;-95
2021/03/20 16:37:27;;;;;;;5.63;2.95;;;-2.70;71.60;;;;;;5005298;28;20403;-95
2021/03/20 16:40:35;;;;;;;9.65;4.80;;;-2.80;71.50;;;;;;4975297;28;20419;-94
2021/03/20 16:43:51;;;;;;;7.28;3.80;;;-2.90;71.50;;;;;;4906103;29;20460;-93
2021/03/20 16:46:44;;;;;;;6.07;3.53;;;-3.10;71.00;;;;;;4895537;29;20450;-94
2021/03/20 16:50:13;;;;;;;5.93;3.50;;;-3.20;72.80;;;;;;4886115;29;20921;-94
2021/03/20 16:53:46;;;;;;;7.22;3.60;;;-3.30;74.10;;;;;;4910493;29;20569;-94
2021/03/20 16:57:14;;;;;;;6.68;3.92;;;-3.40;73.60;;;;;;4910562;29;20446;-94
2021/03/20 17:00:18;;;;;;;8.07;4.03;;;-3.40;73.50;;;;;;4884897;29;20438;-94
2021/03/20 17:03:31;;;;;;;7.50;3.87;;;-3.40;73.60;;;;;;4857258;29;20426;-94
2021/03/20 17:07:20;;;;;;;7.68;4.22;;;-3.40;75.20;;;;;;4874058;29;20468;-94
2021/03/20 17:10:37;;;;;;;6.90;3.70;;;-3.50;77.10;;;;;;4787351;29;20474;-94
2021/03/20 17:13:23;;;;;;;8.30;3.47;;;-3.60;76.20;;;;;;4798731;30;20441;-95
2021/03/20 17:17:05;;;;;;;7.05;3.80;;;-3.80;78.70;;;;;;4783950;30;20437;-93
2021/03/20 17:20:04;;;;;;;9.07;5.05;;;-3.80;82.00;;;;;;4782884;29;20530;-92
2021/03/20 17:22:53;;;;;;;7.85;4.20;;;-3.90;78.90;;;;;;4830686;29;21008;-92
2021/03/20 17:26:01;;;;;;;7.90;4.13;;;-3.90;81.80;;;;;;4830089;29;20536;-93
2021/03/20 17:28:33;;;;;;;8.23;4.60;;;-4.00;83.00;;;;;;4817599;29;20444;-92
2021/03/20 17:31:20;;;;;;;9.52;4.35;;;-3.90;83.10;;;;;;4832112;29;20438;-93
2021/03/20 17:34:31;;;;;;;8.95;5.05;;;-3.90;84.40;;;;;;4819092;29;20463;-94
2021/03/20 17:37:37;;;;;;;8.65;4.82;;;-3.90;85.30;;;;;;4816244;29;20440;-94
2021/03/20 17:40:33;;;;;;;10.85;5.82;;;-4.10;87.40;;;;;;4825280;29;20426;-94
2021/03/20 17:44:16;;;;;;;9.50;5.25;;;-4.00;87.30;;;;;;4815466;29;20451;-93
2021/03/20 17:47:16;;;;;;;9.93;5.40;;;-4.10;84.00;;;;;;4799861;29;20758;-93
2021/03/20 17:50:58;;;;;;;8.98;4.90;;;-4.20;87.30;;;;;;4861378;29;20429;-94
2021/03/20 17:54:17;;;;;;;16.33;8.55;;;-4.20;86.90;;;;;;5081423;23;20426;-93
2021/03/20 17:57:24;;;;;;;9.27;5.07;;;-4.20;90.00;;;;;;5030688;28;20414;-93
2021/03/20 18:00:43;;;;;;;6.82;4.00;;;-4.10;87.10;;;;;;5044121;28;20399;-94
2021/03/20 18:03:43;;;;;;;7.83;4.27;;;-4.00;84.20;;;;;;4997719;28;20459;-93
2021/03/20 18:06:48;;;;;;;8.15;4.45;;;-4.20;85.30;;;;;;5006022;28;20493;-94
2021/03/20 18:09:59;;;;;;;21.95;9.80;;;-4.20;83.00;;;;;;4981039;28;20438;-94
2021/03/20 18:13:13;;;;;;;8.98;5.05;;;-4.30;86.10;;;;;;5019866;28;20411;-94
2021/03/20 18:16:16;;;;;;;8.60;4.30;;;-4.10;83.40;;;;;;4933152;29;20907;-94
2021/03/20 18:19:22;;;;;;;7.53;4.33;;;-4.30;83.90;;;;;;4931495;29;20435;-94
2021/03/20 18:22:46;;;;;;;9.02;4.50;;;-4.30;84.70;;;;;;4863433;29;20445;-94
2021/03/20 18:26:01;;;;;;;8.57;4.60;;;-4.50;87.60;;;;;;4896533;29;20458;-93
2021/03/20 18:34:33;;;;;;;8.20;4.00;;;-4.60;90.70;;;;;;5413769;23;20431;-93
2021/03/20 18:41:50;;;;;;;11.02;5.43;;;-4.60;87.90;;;;;;5131958;23;20407;-94
2021/03/20 18:45:30;;;;;;;7.22;4.47;;;-4.60;88.00;;;;;;4973440;28;20428;-94
2021/03/20 18:55:38;;;;;;;8.00;4.78;;;-4.50;87.80;;;;;;4948592;29;20474;-94
2021/03/20 18:58:47;;;;;;;14.15;6.65;;;-4.60;89.30;;;;;;4874382;29;20489;-95
2021/03/20 19:01:42;;;;;;;11.65;6.18;;;-4.60;89.70;;;;;;4879227;29;20447;-95
2021/03/20 19:04:34;;;;;;;12.77;6.75;;;-4.70;90.30;;;;;;4878817;29;20432;-95
2021/03/20 19:07:42;;;;;;;10.30;6.38;;;-4.60;90.50;;;;;;4892127;29;20421;-90
2021/03/20 19:11:40;;;;;;;11.32;5.55;;;-4.60;90.00;;;;;;4865096;29;20407;-94
2021/03/20 19:15:11;;;;;;;7.90;5.13;;;-4.50;87.90;;;;;;4878614;29;20424;-94
2021/03/20 19:18:30;;;;;;;13.60;6.80;;;-4.50;89.20;;;;;;4794115;29;20507;-93
2021/03/20 19:25:07;;;;;;;10.43;5.97;;;-4.70;91.00;;;;;;4791610;30;20523;-93
2021/03/20 19:28:43;;;;;;;9.75;5.72;;;-4.80;90.90;;;;;;4740130;30;20434;-93
2021/03/20 19:32:18;;;;;;;10.82;5.40;;;-4.90;90.60;;;;;;4721071;30;20537;-93
2021/03/20 19:45:21;;;;;;;9.20;5.03;;;-5.10;90.10;;;;;;5007272;28;20469;-93
2021/03/20 19:49:01;;;;;;;8.93;5.07;;;-5.10;89.20;;;;;;5002139;28;20422;-92
2021/03/20 19:57:38;;;;;;;9.30;5.90;;;-5.50;91.70;;;;;;5120771;22;20415;-93
2021/03/20 20:01:15;;;;;;;9.68;5.32;;;-5.50;92.20;;;;;;4995934;28;20787;-93
2021/03/20 20:04:28;;;;;;;10.85;5.55;;;-5.30;91.70;;;;;;4931884;29;20439;-93
2021/03/20 20:11:43;;;;;;;10.30;5.40;;;-5.40;90.90;;;;;;4917697;29;20435;-91
2021/03/20 21:34:50;;;;;;;12.60;7.70;;;-7.40;96.20;;;;;;5630151;22;20816;-94
2021/03/20 21:37:31;;;;;;;13.27;8.20;;;-7.40;97.40;;;;;;5046386;28;20863;-93
2021/03/20 21:40:22;;;;;;;14.77;7.50;;;-7.40;98.30;;;;;;5007001;28;20422;-95
2021/03/20 21:42:59;;;;;;;12.68;7.90;;;-7.40;98.10;;;;;;5006385;28;20410;-95
2021/03/20 21:45:49;;;;;;;14.75;8.00;;;-7.40;97.60;;;;;;4981337;28;20447;-96
2021/03/20 21:48:31;;;;;;;13.25;8.00;;;-7.50;98.30;;;;;;4989485;28;20498;-90
2021/03/20 21:51:04;;;;;;;11.73;7.60;;;-7.60;99.30;;;;;;4996654;28;20500;-93
2021/03/20 21:53:33;;;;;;;15.13;7.70;;;-7.70;99.10;;;;;;4979983;28;20483;-93
2021/03/20 21:56:05;;;;;;;14.27;7.72;;;-7.60;99.80;;;;;;4999769;28;20450;-93
2021/03/20 21:59:14;;;;;;;13.48;8.15;;;-7.80;99.90;;;;;;5005820;28;20462;-93
2021/03/20 22:02:08;;;;;;;14.32;8.00;;;-7.80;99.90;;;;;;5002565;28;20493;-95
2021/03/20 22:04:37;;;;;;;12.23;7.93;;;-7.80;99.90;;;;;;4994802;28;20434;-94
2021/03/20 22:07:27;;;;;;;13.48;7.93;;;-7.80;99.90;;;;;;4977345;28;20424;-94
2021/03/20 22:10:15;;;;;;;14.43;8.10;;;-8.00;99.90;;;;;;4989673;28;20423;-93
2021/03/20 22:13:16;;;;;;;15.90;7.70;;;-7.90;99.90;;;;;;4988289;28;20416;-95
2021/03/20 22:16:17;;;;;;;17.50;9.13;;;-7.90;99.90;;;;;;4976594;28;20420;-93
2021/03/20 22:23:00;;;;;;;18.00;9.57;;;-7.90;99.90;;;;;;4989086;28;20894;-96
2021/03/20 22:26:10;;;;;;;16.80;8.80;;;-7.90;99.90;;;;;;4962839;28;20428;-95
2021/03/20 22:29:27;;;;;;;14.18;9.15;;;-7.90;99.90;;;;;;4990241;28;20479;-95
2021/03/20 22:32:26;;;;;;;13.57;8.48;;;-7.90;99.90;;;;;;5011647;28;20425;-94
2021/03/20 22:35:46;;;;;;;15.18;8.82;;;-7.90;99.90;;;;;;4968024;28;20489;-95
2021/03/20 22:38:36;;;;;;;14.30;8.80;;;-8.00;99.90;;;;;;4978226;28;20444;-95
2021/03/20 22:41:19;;;;;;;13.80;8.57;;;-8.10;99.90;;;;;;4972449;28;20439;-96
2021/03/20 22:44:01;;;;;;;14.75;8.32;;;-8.00;99.90;;;;;;4985872;28;20419;-94
2021/03/20 22:46:30;;;;;;;14.10;8.57;;;-8.20;99.90;;;;;;4968352;28;20467;-96
2021/03/20 22:49:11;;;;;;;13.80;8.53;;;-8.10;99.90;;;;;;4955997;28;20446;-96
2021/03/20 22:51:54;;;;;;;12.33;8.30;;;-8.10;99.90;;;;;;4969179;28;20420;-96
2021/03/20 22:54:23;;;;;;;12.90;8.20;;;-8.10;99.90;;;;;;4971135;28;20630;-94
2021/03/20 22:57:29;;;;;;;17.15;8.25;;;-8.10;99.90;;;;;;4961751;28;20412;-94
2021/03/20 23:01:24;;;;;;;14.45;8.25;;;-8.20;99.90;;;;;;4961752;28;20510;-93
2021/03/20 23:04:34;;;;;;;14.45;8.88;;;-8.20;99.90;;;;;;4894209;29;20414;-94
2021/03/20 23:08:06;;;;;;;15.48;9.30;;;-8.20;99.90;;;;;;4881520;29;20512;-94
2021/03/20 23:11:42;;;;;;;14.60;9.27;;;-8.10;99.90;;;;;;4881892;29;20444;-94
2021/03/20 23:15:32;;;;;;;17.45;9.65;;;-8.10;99.90;;;;;;4949634;28;20424;-95
